Time;durP1;ratioP1;P1;durP2;ratioP2;P2;SDS_P1;SDS_P2;PMS_P1;PMS_P2;Temp;Humidity;BMP_temperature;BMP_pressure;BME280_temperature;BME280_humidity;BME280_pressure;Samples;Min_cycle;Max_cycle;Signal;HPM_P1;HPM_P2
2022/02/03 00:00:42;;;;;;;9.90;7.20;;;9.50;99.90;;;;;;5020396;28;20815;-71
2022/02/03 00:03:31;;;;;;;9.30;7.60;;;9.50;99.90;;;;;;5038323;28;20431;-71
2022/02/03 00:06:06;;;;;;;10.47;7.23;;;9.50;99.90;;;;;;5039825;28;20480;-71
2022/02/03 00:24:37;;;;;;;10.90;7.83;;;9.50;99.90;;;;;;5038617;28;20744;-71
2022/02/03 00:27:12;;;;;;;8.93;7.33;;;9.60;99.90;;;;;;5038818;28;20475;-72
2022/02/03 00:32:27;;;;;;;8.50;7.17;;;9.60;99.90;;;;;;5035809;28;20426;-72
2022/02/03 00:35:22;;;;;;;9.83;6.50;;;9.60;99.90;;;;;;5036173;28;20975;-71
2022/02/03 00:48:44;;;;;;;7.87;6.77;;;9.60;99.90;;;;;;5038823;28;20525;-71
2022/02/03 00:51:13;;;;;;;6.80;6.07;;;9.70;99.90;;;;;;5038668;28;20907;-71
2022/02/03 00:53:39;;;;;;;7.53;6.10;;;9.80;99.90;;;;;;5035391;28;20423;-71
2022/02/03 00:56:12;;;;;;;6.73;6.13;;;9.80;99.90;;;;;;5035664;28;21153;-71
2022/02/03 00:58:50;;;;;;;7.30;6.50;;;9.70;99.90;;;;;;5035464;28;20545;-70
2022/02/03 01:01:19;;;;;;;7.73;6.27;;;9.70;99.90;;;;;;5036733;28;20434;-71
2022/02/03 01:03:50;;;;;;;7.40;5.50;;;9.60;99.90;;;;;;5038849;28;20878;-71
2022/02/03 01:06:17;;;;;;;8.97;6.73;;;9.80;99.90;;;;;;5035567;28;20466;-71
2022/02/03 01:08:44;;;;;;;7.67;6.40;;;9.90;99.90;;;;;;5043282;28;20545;-71
2022/02/03 01:11:18;;;;;;;7.40;6.37;;;10.00;99.90;;;;;;5034709;28;20438;-71
2022/02/03 01:13:53;;;;;;;8.13;6.50;;;10.10;99.90;;;;;;5037618;28;20867;-71
2022/02/03 01:16:48;;;;;;;10.70;8.07;;;10.00;99.90;;;;;;5035266;28;20545;-71
2022/02/03 01:44:03;;;;;;;8.03;7.23;;;9.50;99.90;;;;;;5037422;28;20884;-71
2022/02/03 01:46:55;;;;;;;6.77;6.10;;;9.50;99.90;;;;;;5041229;28;20468;-71
2022/02/03 01:51:37;;;;;;;7.40;6.27;;;9.50;99.90;;;;;;5039231;28;21334;-71
2022/02/03 01:52:22;;;;;;;8.50;6.53;;;9.50;99.90;;;;;;5034444;28;20445;-70
2022/02/03 01:54:55;;;;;;;7.67;6.43;;;9.50;99.90;;;;;;5041262;28;20895;-71
2022/02/03 01:57:29;;;;;;;9.83;6.73;;;9.40;99.90;;;;;;5036497;28;20472;-71
2022/02/03 02:00:05;;;;;;;7.90;6.27;;;9.40;99.90;;;;;;5036994;28;20473;-71
2022/02/03 02:02:37;;;;;;;9.47;6.70;;;9.50;99.90;;;;;;5044395;28;20795;-71
2022/02/03 02:05:36;;;;;;;10.30;7.40;;;9.50;99.90;;;;;;5038736;28;20430;-71
2022/02/03 02:08:14;;;;;;;7.33;6.40;;;9.50;99.90;;;;;;5038099;28;20445;-71
2022/02/03 02:11:22;;;;;;;9.30;7.17;;;9.50;99.90;;;;;;5038611;28;20786;-71
2022/02/03 02:39:31;;;;;;;9.07;7.20;;;9.60;99.90;;;;;;5037096;28;20491;-70
2022/02/03 02:42:34;;;;;;;9.77;7.40;;;9.70;99.90;;;;;;5039318;28;20442;-70
2022/02/03 02:45:11;;;;;;;9.40;7.57;;;9.70;99.90;;;;;;5043895;28;20428;-70
2022/02/03 02:47:53;;;;;;;10.30;7.53;;;9.70;99.90;;;;;;5038150;28;20545;-69
2022/02/03 02:50:29;;;;;;;10.80;9.70;;;9.60;99.90;;;;;;5035950;28;20446;-69
2022/02/03 02:53:21;;;;;;;7.73;6.63;;;9.70;99.90;;;;;;5041078;28;20515;-69
2022/02/03 02:58:46;;;;;;;8.30;7.20;;;9.80;99.90;;;;;;5035674;28;20434;-69
2022/02/03 03:36:59;;;;;;;8.60;6.70;;;9.70;99.90;;;;;;5032245;28;20520;-70
2022/02/03 03:39:33;;;;;;;9.10;7.47;;;9.60;99.90;;;;;;5037076;28;20469;-69
2022/02/03 03:42:02;;;;;;;10.07;7.10;;;9.60;99.90;;;;;;5033162;28;20540;-68
2022/02/03 03:44:33;;;;;;;8.60;6.50;;;9.60;99.90;;;;;;5034971;28;20449;-69
2022/02/03 03:47:02;;;;;;;10.90;8.00;;;9.60;99.90;;;;;;5036968;28;20469;-68
2022/02/03 03:49:45;;;;;;;9.17;8.00;;;9.50;99.90;;;;;;5038683;28;20460;-70
2022/02/03 03:52:19;;;;;;;8.93;6.90;;;9.50;99.90;;;;;;5036587;28;20429;-70
2022/02/03 03:54:58;;;;;;;8.37;7.13;;;9.40;99.90;;;;;;5041744;28;20967;-69
2022/02/03 04:44:59;;;;;;;11.73;8.80;;;9.40;99.90;;;;;;4977669;28;20449;-70
2022/02/03 04:56:36;;;;;;;11.23;8.90;;;9.40;99.90;;;;;;5035097;28;20462;-70
2022/02/03 05:02:59;;;;;;;12.43;9.93;;;9.30;99.90;;;;;;5039710;28;20520;-69
2022/02/03 05:06:23;;;;;;;15.33;8.40;;;9.30;99.90;;;;;;5038806;28;20957;-69
2022/02/03 05:12:19;;;;;;;10.73;8.97;;;9.20;99.90;;;;;;5040204;28;20441;-69
2022/02/03 05:45:53;;;;;;;12.13;9.00;;;9.10;99.90;;;;;;5040117;28;20807;-68
2022/02/03 06:11:56;;;;;;;14.03;9.87;;;9.20;99.90;;;;;;5044296;28;20426;-69
2022/02/03 06:12:57;;;;;;;12.77;9.60;;;9.10;99.90;;;;;;5043291;28;20192;-69
2022/02/03 06:15:42;;;;;;;14.50;10.10;;;9.10;99.90;;;;;;5038641;28;20439;-69
2022/02/03 06:23:48;;;;;;;14.13;9.57;;;9.20;99.90;;;;;;5037686;28;20466;-69
2022/02/03 06:29:05;;;;;;;14.23;10.27;;;9.10;99.90;;;;;;5057421;28;20961;-71
2022/02/03 06:31:36;;;;;;;10.40;8.63;;;9.10;99.90;;;;;;5056357;28;20519;-70
2022/02/03 06:34:02;;;;;;;14.33;9.40;;;9.10;99.90;;;;;;5055608;28;20522;-69
2022/02/03 06:36:27;;;;;;;11.43;9.23;;;9.20;99.90;;;;;;5053331;28;20501;-70
2022/02/03 06:38:53;;;;;;;12.30;9.80;;;9.10;99.90;;;;;;5055980;28;20441;-70
2022/02/03 06:41:19;;;;;;;12.03;8.80;;;9.10;99.90;;;;;;5053615;28;20190;-69
2022/02/03 06:43:45;;;;;;;17.93;9.73;;;9.00;99.90;;;;;;5052242;28;20629;-69
2022/02/03 06:46:12;;;;;;;12.93;9.67;;;8.90;99.90;;;;;;5053184;28;20660;-70
2022/02/03 06:48:39;;;;;;;13.43;9.23;;;9.00;99.90;;;;;;5054757;28;20430;-69
2022/02/03 06:51:15;;;;;;;12.23;9.20;;;9.10;99.90;;;;;;5054141;28;20456;-70
2022/02/03 06:53:43;;;;;;;14.30;10.20;;;9.10;99.90;;;;;;5054439;28;20448;-69
2022/02/03 06:56:50;;;;;;;15.53;10.47;;;9.00;99.90;;;;;;5054955;28;20514;-69
2022/02/03 06:59:03;;;;;;;13.13;9.23;;;9.00;99.90;;;;;;5048437;28;20449;-69
2022/02/03 07:01:35;;;;;;;14.43;10.10;;;9.10;99.90;;;;;;5054633;28;20959;-69
2022/02/03 07:04:04;;;;;;;14.00;10.60;;;9.10;99.90;;;;;;5055267;28;20470;-69
2022/02/03 07:06:32;;;;;;;17.40;11.80;;;9.00;99.90;;;;;;5054457;28;21048;-69
2022/02/03 07:09:06;;;;;;;13.97;9.57;;;9.00;99.90;;;;;;5052522;28;21051;-70
2022/02/03 07:11:31;;;;;;;14.23;10.20;;;9.10;99.90;;;;;;5056836;28;20443;-70
2022/02/03 07:13:57;;;;;;;16.67;12.80;;;9.00;99.90;;;;;;5056347;28;20871;-70
2022/02/03 07:16:23;;;;;;;17.83;12.73;;;9.00;99.90;;;;;;5054722;28;20217;-69
2022/02/03 07:18:48;;;;;;;15.83;11.50;;;9.10;99.90;;;;;;5056433;28;20183;-69
2022/02/03 07:21:14;;;;;;;18.83;11.70;;;9.10;99.90;;;;;;5057203;28;20203;-69
2022/02/03 07:23:39;;;;;;;13.97;11.10;;;9.00;99.90;;;;;;5057372;28;20197;-69
2022/02/03 07:26:05;;;;;;;16.00;12.67;;;9.00;99.90;;;;;;5050523;28;20238;-69
2022/02/03 07:28:31;;;;;;;17.37;12.97;;;9.10;99.90;;;;;;5053713;28;20628;-71
2022/02/03 07:30:56;;;;;;;19.60;11.37;;;9.10;99.90;;;;;;5053447;28;20267;-69
2022/02/03 07:33:22;;;;;;;16.07;12.77;;;9.00;99.90;;;;;;5052943;28;20188;-70
2022/02/03 07:35:48;;;;;;;18.23;12.07;;;9.00;99.90;;;;;;5051644;28;20788;-69
2022/02/03 07:38:13;;;;;;;17.17;12.33;;;9.00;99.90;;;;;;5056077;28;20250;-69
2022/02/03 07:40:41;;;;;;;15.63;11.00;;;9.00;99.90;;;;;;5056446;28;20722;-70
2022/02/03 07:43:10;;;;;;;17.53;11.63;;;9.00;99.90;;;;;;5056975;28;20222;-71
2022/02/03 07:45:36;;;;;;;20.23;11.97;;;8.90;99.90;;;;;;5056232;28;21323;-69
2022/02/03 07:48:01;;;;;;;17.93;12.57;;;8.90;99.90;;;;;;5055637;28;21032;-73
2022/02/03 07:50:27;;;;;;;15.60;11.60;;;8.90;99.90;;;;;;5056741;28;20425;-69
2022/02/03 07:52:53;;;;;;;17.40;10.90;;;8.90;99.90;;;;;;5055691;28;20188;-69
2022/02/03 07:55:20;;;;;;;14.80;9.57;;;8.90;99.90;;;;;;5057408;28;20433;-68
2022/02/03 07:57:48;;;;;;;15.33;11.17;;;9.00;99.90;;;;;;5053102;28;20207;-70
2022/02/03 08:00:16;;;;;;;12.97;10.43;;;9.10;99.90;;;;;;5056016;28;20449;-70
2022/02/03 08:02:43;;;;;;;15.13;11.40;;;9.10;99.90;;;;;;5057936;28;20816;-69
2022/02/03 08:05:14;;;;;;;13.30;10.27;;;9.10;99.90;;;;;;5060673;28;20535;-71
2022/02/03 08:08:05;;;;;;;14.60;9.70;;;9.00;99.90;;;;;;5060646;28;20468;-70
2022/02/03 08:10:45;;;;;;;15.17;10.90;;;9.00;99.90;;;;;;5059785;28;20823;-68
2022/02/03 08:13:17;;;;;;;12.97;10.10;;;9.10;99.90;;;;;;5059674;28;20430;-69
2022/02/03 08:15:43;;;;;;;12.83;10.07;;;9.20;99.90;;;;;;5056105;28;20868;-69
2022/02/03 08:18:15;;;;;;;15.53;9.93;;;9.20;99.90;;;;;;5059915;28;20521;-71
2022/02/03 08:20:48;;;;;;;15.13;9.60;;;9.20;99.90;;;;;;5058449;28;20527;-68
2022/02/03 08:23:43;;;;;;;12.80;10.20;;;9.30;99.90;;;;;;5057032;28;20423;-70
2022/02/03 08:26:10;;;;;;;11.97;9.40;;;9.40;99.90;;;;;;5057578;28;20472;-70
2022/02/03 08:28:58;;;;;;;16.20;10.20;;;9.30;99.90;;;;;;5058149;28;20559;-68
2022/02/03 08:31:25;;;;;;;10.90;9.10;;;9.30;99.90;;;;;;5058991;28;20546;-72
2022/02/03 08:33:53;;;;;;;14.07;10.20;;;9.40;99.90;;;;;;5056956;28;20779;-72
2022/02/03 08:36:20;;;;;;;11.00;9.43;;;9.30;99.90;;;;;;5059292;28;20464;-73
2022/02/03 08:38:49;;;;;;;11.43;9.50;;;9.40;99.90;;;;;;5057590;28;20446;-73
2022/02/03 08:41:15;;;;;;;10.83;9.17;;;9.50;99.90;;;;;;5058969;28;20431;-74
2022/02/03 08:43:43;;;;;;;12.53;9.57;;;9.50;99.90;;;;;;5055785;28;20434;-73
2022/02/03 08:46:12;;;;;;;14.27;9.53;;;9.60;99.90;;;;;;5052357;28;20479;-73
2022/02/03 08:48:39;;;;;;;11.67;8.80;;;9.70;99.90;;;;;;5058292;28;20441;-74
2022/02/03 08:51:07;;;;;;;11.27;8.83;;;9.60;99.90;;;;;;5057618;28;20425;-73
2022/02/03 08:53:47;;;;;;;11.63;8.60;;;9.60;99.90;;;;;;5055743;28;20437;-74
2022/02/03 09:34:55;;;;;;;9.53;7.23;;;9.80;99.90;;;;;;5058998;28;20468;-75
2022/02/03 09:37:36;;;;;;;10.07;7.37;;;9.80;99.90;;;;;;5058188;28;20464;-74
2022/02/03 09:56:11;;;;;;;8.80;7.00;;;10.10;99.90;;;;;;5060837;28;20460;-72
2022/02/03 09:58:54;;;;;;;8.53;6.90;;;10.20;99.90;;;;;;5061392;28;20433;-73
2022/02/03 10:01:42;;;;;;;8.40;7.40;;;10.10;99.90;;;;;;5062722;28;20437;-74
2022/02/03 10:04:16;;;;;;;9.17;6.30;;;10.20;99.90;;;;;;5061259;28;20811;-72
2022/02/03 10:06:53;;;;;;;7.07;6.00;;;10.40;99.90;;;;;;5062110;28;20465;-71
2022/02/03 10:09:38;;;;;;;8.57;6.90;;;10.20;99.90;;;;;;5059268;28;20472;-74
2022/02/03 10:12:05;;;;;;;8.20;6.90;;;10.30;99.90;;;;;;5060308;28;20438;-72
2022/02/03 10:14:36;;;;;;;7.23;6.47;;;10.30;99.90;;;;;;5058712;28;20826;-73
2022/02/03 10:17:04;;;;;;;11.03;6.70;;;10.30;99.90;;;;;;5061079;28;20454;-73
2022/02/03 10:19:38;;;;;;;7.63;6.47;;;10.40;99.90;;;;;;5057534;28;20454;-73
2022/02/03 10:22:14;;;;;;;9.27;6.60;;;10.50;99.90;;;;;;5056629;28;20565;-77
2022/02/03 10:24:42;;;;;;;6.63;5.20;;;10.70;99.90;;;;;;5059515;28;20446;-77
2022/02/03 10:27:37;;;;;;;7.30;5.90;;;10.80;99.90;;;;;;5054751;28;20473;-74
2022/02/03 10:30:08;;;;;;;6.03;5.43;;;10.80;99.90;;;;;;5061015;28;20532;-72
2022/02/03 10:32:38;;;;;;;5.70;5.10;;;10.70;99.90;;;;;;5060799;28;20430;-73
2022/02/03 10:35:14;;;;;;;5.50;5.00;;;10.80;99.90;;;;;;5059406;28;20446;-74
2022/02/03 10:37:44;;;;;;;6.10;4.53;;;10.80;99.90;;;;;;5059254;28;20460;-75
2022/02/03 10:43:32;;;;;;;5.40;4.60;;;10.90;99.90;;;;;;5026749;28;20430;-76
2022/02/03 10:46:36;;;;;;;5.63;4.63;;;10.90;99.90;;;;;;5058042;28;20462;-76
2022/02/03 10:49:11;;;;;;;6.20;4.40;;;10.90;99.90;;;;;;5059224;28;20509;-73
2022/02/03 10:58:06;;;;;;;5.33;4.43;;;10.80;99.90;;;;;;5061148;28;20568;-70
2022/02/03 11:00:39;;;;;;;5.87;3.70;;;10.80;99.90;;;;;;5051061;28;20461;-70
2022/02/03 11:10:50;;;;;;;4.70;4.20;;;11.00;99.90;;;;;;5058755;28;20800;-77
2022/02/03 11:13:18;;;;;;;5.90;3.67;;;11.00;99.90;;;;;;5057708;28;20423;-76
2022/02/03 11:15:44;;;;;;;4.90;4.37;;;11.10;99.90;;;;;;5060275;28;20461;-72
2022/02/03 11:18:11;;;;;;;4.70;3.83;;;10.90;99.90;;;;;;5059343;28;20459;-74
2022/02/03 11:20:40;;;;;;;4.93;3.70;;;10.90;99.90;;;;;;5057157;28;20484;-73
2022/02/03 11:55:31;;;;;;;4.10;3.37;;;11.00;99.90;;;;;;5058593;28;20470;-71
2022/02/03 11:58:26;;;;;;;3.30;3.00;;;11.00;99.90;;;;;;5059096;28;20560;-75
2022/02/03 12:26:20;;;;;;;3.67;2.47;;;11.40;99.90;;;;;;5056590;28;20535;-77
2022/02/03 12:32:10;;;;;;;2.50;2.20;;;11.50;99.90;;;;;;5044615;28;20479;-78
2022/02/03 12:40:35;;;;;;;2.93;2.20;;;11.70;99.90;;;;;;5026936;28;20495;-71
2022/02/03 12:45:49;;;;;;;3.13;2.60;;;11.80;99.90;;;;;;5056036;28;20602;-75
2022/02/03 12:48:26;;;;;;;2.97;2.00;;;11.60;99.90;;;;;;5052375;28;20414;-75
2022/02/03 12:50:53;;;;;;;2.93;2.50;;;11.50;99.90;;;;;;5054235;28;20441;-75
2022/02/03 12:53:20;;;;;;;4.10;2.60;;;11.60;99.90;;;;;;5058095;28;20472;-75
2022/02/03 12:55:52;;;;;;;3.30;2.70;;;11.70;99.90;;;;;;5053867;28;20460;-75
2022/02/03 12:58:24;;;;;;;2.97;2.47;;;11.50;99.90;;;;;;5056905;28;20484;-75
2022/02/03 13:01:02;;;;;;;2.63;2.43;;;11.50;99.90;;;;;;5056031;28;20471;-75
2022/02/03 13:03:35;;;;;;;5.77;2.13;;;11.30;99.90;;;;;;5059813;28;20475;-75
2022/02/03 13:06:05;;;;;;;3.70;2.60;;;11.20;99.90;;;;;;5058294;28;21107;-76
2022/02/03 13:08:31;;;;;;;2.80;2.27;;;11.20;99.90;;;;;;5059950;28;21099;-76
2022/02/03 13:11:15;;;;;;;5.10;2.47;;;11.20;99.90;;;;;;5058140;28;20475;-76
2022/02/03 13:14:08;;;;;;;3.20;2.47;;;11.30;99.90;;;;;;5059356;28;20433;-76
2022/02/03 13:16:28;;;;;;;4.03;2.47;;;11.30;99.90;;;;;;5056729;28;20523;-77
2022/02/03 13:19:03;;;;;;;2.57;2.17;;;11.40;99.90;;;;;;5057226;28;20483;-76
2022/02/03 13:26:48;;;;;;;3.63;2.43;;;11.10;99.90;;;;;;5062064;28;20219;-76
2022/02/03 13:29:26;;;;;;;3.63;1.90;;;11.10;99.90;;;;;;5064157;28;20516;-76
2022/02/03 13:31:57;;;;;;;2.80;2.20;;;11.10;99.90;;;;;;5062337;28;20999;-76
2022/02/03 13:34:34;;;;;;;2.50;2.30;;;11.10;99.90;;;;;;5063250;28;20500;-76
2022/02/03 13:39:39;;;;;;;2.30;2.10;;;11.20;99.90;;;;;;5060723;28;20524;-75
2022/02/03 13:42:11;;;;;;;3.40;2.67;;;11.40;99.90;;;;;;5061130;28;20941;-74
2022/02/03 13:44:37;;;;;;;2.53;2.13;;;11.30;99.90;;;;;;5059738;28;20483;-74
2022/02/03 13:47:22;;;;;;;2.90;2.03;;;11.20;99.90;;;;;;5061861;28;20480;-77
2022/02/03 13:50:03;;;;;;;3.80;2.70;;;11.10;99.90;;;;;;5062813;28;20426;-73
2022/02/03 13:52:56;;;;;;;3.20;2.90;;;11.00;99.90;;;;;;5063429;28;20459;-76
2022/02/03 14:15:13;;;;;;;4.03;3.20;;;11.10;99.90;;;;;;5064098;28;20418;-83
2022/02/03 14:20:24;;;;;;;4.27;3.17;;;11.10;99.90;;;;;;5056495;28;20496;-76
2022/02/03 14:28:15;;;;;;;3.80;3.07;;;10.90;99.90;;;;;;5058682;28;20568;-72
2022/02/03 14:30:45;;;;;;;5.23;3.03;;;10.90;99.90;;;;;;5058866;28;20940;-77
2022/02/03 14:33:11;;;;;;;6.83;3.03;;;10.80;99.90;;;;;;5062204;28;20192;-84
2022/02/03 14:35:38;;;;;;;2.87;2.50;;;10.70;99.90;;;;;;5059447;28;20433;-86
2022/02/03 14:38:16;;;;;;;3.27;2.93;;;10.80;99.90;;;;;;5059675;28;21376;-73
2022/02/03 14:43:16;;;;;;;3.27;2.60;;;10.90;99.90;;;;;;5057628;28;20856;-81
2022/02/03 14:45:42;;;;;;;3.90;3.20;;;10.90;99.90;;;;;;5061224;28;21874;-73
2022/02/03 14:48:10;;;;;;;4.30;2.80;;;10.80;99.90;;;;;;5052743;28;20222;-74
2022/02/03 14:50:36;;;;;;;3.30;2.93;;;10.80;99.90;;;;;;5059184;28;20180;-73
2022/02/03 14:53:09;;;;;;;4.03;2.67;;;10.80;99.90;;;;;;5055610;28;20460;-73
2022/02/03 14:58:25;;;;;;;4.10;3.67;;;10.80;99.90;;;;;;5056393;28;20476;-71
2022/02/03 15:00:51;;;;;;;4.57;3.40;;;10.70;99.90;;;;;;5055362;28;20915;-74
2022/02/03 15:03:18;;;;;;;3.77;3.40;;;10.70;99.90;;;;;;5057518;28;20842;-72
2022/02/03 15:05:43;;;;;;;5.00;3.70;;;10.60;99.90;;;;;;5060143;28;20461;-73
2022/02/03 15:08:22;;;;;;;4.43;3.50;;;10.50;99.90;;;;;;5058483;28;20490;-72
2022/02/03 15:11:08;;;;;;;3.87;3.47;;;10.50;99.90;;;;;;5057471;28;20765;-76
2022/02/03 15:13:40;;;;;;;4.43;3.70;;;10.40;99.90;;;;;;5059641;28;20441;-73
2022/02/03 15:16:10;;;;;;;5.27;3.10;;;10.50;99.90;;;;;;5057608;28;20465;-73
2022/02/03 15:18:37;;;;;;;3.43;3.10;;;10.50;99.90;;;;;;5058662;28;20516;-72
2022/02/03 15:21:04;;;;;;;3.20;2.50;;;10.50;99.90;;;;;;5055407;28;20441;-72
2022/02/03 15:23:30;;;;;;;3.03;2.70;;;10.40;99.90;;;;;;5059783;28;20420;-74
2022/02/03 15:25:56;;;;;;;2.93;2.33;;;10.30;99.90;;;;;;5057162;28;20469;-73
2022/02/03 15:28:22;;;;;;;2.83;2.53;;;10.30;99.90;;;;;;5058218;28;20188;-74
2022/02/03 15:30:48;;;;;;;2.63;2.43;;;10.30;99.90;;;;;;5061738;28;20422;-71
2022/02/03 15:33:15;;;;;;;2.80;2.60;;;10.30;99.90;;;;;;5056128;28;20507;-73
2022/02/03 15:35:48;;;;;;;3.20;2.27;;;10.30;99.90;;;;;;5056885;28;20797;-76
2022/02/03 15:38:17;;;;;;;3.50;2.30;;;10.30;99.90;;;;;;5054898;28;20528;-75
2022/02/03 15:40:44;;;;;;;3.23;2.27;;;10.40;99.90;;;;;;5049595;28;20434;-72
2022/02/03 15:43:23;;;;;;;2.50;2.07;;;10.40;99.90;;;;;;5054280;28;20451;-76
2022/02/03 15:45:54;;;;;;;3.33;2.47;;;10.30;99.90;;;;;;5055000;28;20472;-74
2022/02/03 15:48:31;;;;;;;2.73;2.00;;;10.30;99.90;;;;;;5055058;28;20438;-73
2022/02/03 16:17:55;;;;;;;2.73;2.53;;;10.00;99.90;;;;;;5058787;28;20430;-73
2022/02/03 16:20:25;;;;;;;2.73;2.40;;;10.00;99.90;;;;;;5069805;28;20973;-73
2022/02/03 16:26:38;;;;;;;4.70;2.37;;;9.90;99.90;;;;;;5059876;28;20526;-73
2022/02/03 16:52:49;;;;;;;6.30;3.53;;;9.70;99.90;;;;;;5059358;28;20444;-73
2022/02/03 16:55:19;;;;;;;3.90;3.03;;;9.80;99.90;;;;;;5056005;28;20447;-77
2022/02/03 16:57:47;;;;;;;5.70;4.03;;;9.80;99.90;;;;;;5056040;28;20472;-74
2022/02/03 17:00:15;;;;;;;3.77;3.40;;;9.90;99.90;;;;;;5059621;28;20468;-72
2022/02/03 17:02:41;;;;;;;3.57;3.23;;;9.80;99.90;;;;;;5057042;28;20489;-71
2022/02/03 17:05:08;;;;;;;4.30;3.50;;;9.80;99.90;;;;;;5063206;28;20449;-73
2022/02/03 17:07:34;;;;;;;4.73;3.60;;;9.90;99.90;;;;;;5060708;28;20500;-73
2022/02/03 17:10:00;;;;;;;4.73;3.47;;;9.90;99.90;;;;;;5058814;28;20838;-72
2022/02/03 17:12:26;;;;;;;3.20;2.90;;;10.00;99.90;;;;;;5060629;28;20460;-72
2022/02/03 17:14:52;;;;;;;5.17;3.17;;;10.00;99.90;;;;;;5058294;28;20194;-71
2022/02/03 17:17:20;;;;;;;4.83;3.90;;;10.10;99.90;;;;;;5062006;28;20499;-72
2022/02/03 17:19:49;;;;;;;3.53;3.23;;;9.90;99.90;;;;;;5057289;28;20442;-70
2022/02/03 17:22:18;;;;;;;5.13;4.10;;;10.00;99.90;;;;;;5060117;28;20441;-75
2022/02/03 17:24:57;;;;;;;3.90;3.50;;;10.00;99.90;;;;;;5062093;28;20483;-71
2022/02/03 17:27:29;;;;;;;5.27;4.03;;;10.00;99.90;;;;;;5060703;28;20507;-70
2022/02/03 17:30:10;;;;;;;4.07;3.47;;;9.90;99.90;;;;;;5058752;28;20452;-72
2022/02/03 18:29:50;;;;;;;6.00;4.63;;;9.90;99.90;;;;;;5059191;28;20438;-73
2022/02/03 18:37:42;;;;;;;5.00;3.97;;;10.00;99.90;;;;;;5061692;28;20469;-73
2022/02/03 18:47:26;;;;;;;6.50;4.70;;;10.00;99.90;;;;;;5061850;28;20453;-74
2022/02/03 18:53:54;;;;;;;5.60;4.47;;;10.00;99.90;;;;;;5059461;28;20461;-72
2022/02/03 18:59:01;;;;;;;7.63;4.67;;;9.90;99.90;;;;;;5057222;28;20437;-74
2022/02/03 19:01:52;;;;;;;4.10;3.70;;;9.90;99.90;;;;;;5059765;28;20186;-73
2022/02/03 19:10:41;;;;;;;5.83;4.47;;;9.90;99.90;;;;;;5060743;28;20456;-74
2022/02/03 19:24:04;;;;;;;6.60;4.90;;;10.00;99.90;;;;;;5062513;28;20492;-74
2022/02/03 20:01:59;;;;;;;9.70;6.80;;;10.00;99.90;;;;;;5036614;28;20580;-69
2022/02/03 20:04:54;;;;;;;6.70;5.77;;;10.00;99.90;;;;;;5037241;28;20442;-69
2022/02/03 20:07:50;;;;;;;6.40;5.77;;;9.90;99.90;;;;;;5037103;28;20500;-69
2022/02/03 20:12:37;;;;;;;11.07;6.70;;;9.80;99.90;;;;;;5035736;28;21045;-71
2022/02/03 20:15:04;;;;;;;11.03;7.13;;;9.80;99.90;;;;;;5042392;28;20460;-69
2022/02/03 20:17:30;;;;;;;11.63;7.27;;;9.70;99.90;;;;;;5038910;28;20203;-68
2022/02/03 20:19:55;;;;;;;11.30;8.97;;;9.80;99.90;;;;;;5036699;28;20956;-69
2022/02/03 20:22:26;;;;;;;12.00;8.87;;;9.80;99.90;;;;;;5040627;28;20176;-69
2022/02/03 20:24:52;;;;;;;6.70;5.93;;;9.80;99.90;;;;;;5037063;28;20670;-69
2022/02/03 20:27:18;;;;;;;7.33;6.63;;;9.80;99.90;;;;;;5039611;28;20469;-70
2022/02/03 20:29:44;;;;;;;17.20;11.27;;;9.80;99.90;;;;;;5038945;28;20200;-70
2022/02/03 20:32:10;;;;;;;8.33;7.53;;;9.70;99.90;;;;;;5023763;28;20434;-70
2022/02/03 20:34:36;;;;;;;18.40;16.53;;;9.70;99.90;;;;;;5038586;28;20185;-70
2022/02/03 20:37:01;;;;;;;9.83;8.83;;;9.60;99.90;;;;;;5039073;28;20206;-71
2022/02/03 20:39:27;;;;;;;13.70;12.30;;;9.70;99.90;;;;;;5038297;28;20442;-70
2022/02/03 20:41:53;;;;;;;9.37;8.07;;;9.70;99.90;;;;;;5038164;28;20180;-70
2022/02/03 20:44:18;;;;;;;7.70;6.23;;;9.60;99.90;;;;;;5041002;28;20267;-70
2022/02/03 20:46:44;;;;;;;7.27;6.10;;;9.40;99.90;;;;;;5038848;28;20207;-70
2022/02/03 20:49:10;;;;;;;7.80;5.43;;;9.40;99.90;;;;;;5039239;28;20191;-70
2022/02/03 20:51:36;;;;;;;6.67;5.97;;;9.30;99.90;;;;;;5035569;28;20186;-70
2022/02/03 20:54:01;;;;;;;9.23;7.33;;;9.30;99.90;;;;;;5038030;28;20513;-70
2022/02/03 20:56:27;;;;;;;7.73;5.93;;;9.10;99.90;;;;;;5039758;28;20196;-70
2022/02/03 20:58:53;;;;;;;7.67;6.17;;;9.10;99.90;;;;;;5037752;28;20194;-70
2022/02/03 21:03:45;;;;;;;7.90;5.77;;;9.10;99.90;;;;;;5039625;28;20184;-70
2022/02/03 21:06:12;;;;;;;13.00;7.80;;;9.10;99.90;;;;;;5039732;28;20215;-70
2022/02/03 21:08:41;;;;;;;10.10;8.63;;;9.10;99.90;;;;;;5036986;28;20517;-70
2022/02/03 21:11:06;;;;;;;7.40;6.20;;;9.10;99.90;;;;;;5038542;28;20527;-70
2022/02/03 21:13:32;;;;;;;8.43;6.40;;;9.10;99.90;;;;;;5039604;28;20506;-70
2022/02/03 21:16:00;;;;;;;7.30;6.50;;;9.20;99.90;;;;;;5040452;28;21086;-70
2022/02/03 21:18:29;;;;;;;10.97;6.13;;;9.20;99.90;;;;;;5038880;28;20532;-70
2022/02/03 21:20:54;;;;;;;9.53;6.00;;;9.10;99.90;;;;;;5038333;28;20434;-70
2022/02/03 21:23:21;;;;;;;8.93;5.93;;;9.10;99.90;;;;;;5039981;28;20503;-70
2022/02/03 21:25:51;;;;;;;11.93;7.70;;;9.20;99.90;;;;;;5023175;28;20203;-69
2022/02/03 21:28:37;;;;;;;8.10;5.83;;;9.10;99.90;;;;;;5038242;28;21013;-70
2022/02/03 21:31:05;;;;;;;8.67;5.60;;;9.10;99.90;;;;;;5041807;28;21000;-69
2022/02/03 21:33:34;;;;;;;8.40;5.17;;;9.10;99.90;;;;;;5039781;28;20546;-70
2022/02/03 21:36:09;;;;;;;6.97;5.20;;;9.10;99.90;;;;;;5038308;28;20446;-69
2022/02/03 21:38:37;;;;;;;6.00;5.40;;;9.10;99.90;;;;;;5038994;28;20422;-69
2022/02/03 21:41:03;;;;;;;5.87;5.00;;;9.10;99.90;;;;;;5019630;28;20438;-70
2022/02/03 21:43:29;;;;;;;8.30;5.53;;;9.10;99.90;;;;;;5041074;28;20520;-70
2022/02/03 21:45:55;;;;;;;8.10;5.33;;;9.10;99.90;;;;;;5036639;28;20505;-69
2022/02/03 21:48:21;;;;;;;6.03;5.43;;;9.00;99.90;;;;;;5041784;28;20465;-71
2022/02/03 21:50:47;;;;;;;7.00;5.20;;;9.00;99.90;;;;;;5042870;28;20253;-70
2022/02/03 21:53:22;;;;;;;7.17;5.80;;;9.10;99.90;;;;;;5042465;28;20186;-70
2022/02/03 21:55:49;;;;;;;7.43;5.40;;;9.10;99.90;;;;;;5043546;28;20598;-71
2022/02/03 21:58:15;;;;;;;6.20;5.33;;;9.10;99.90;;;;;;5043754;28;20469;-72
2022/02/03 22:00:42;;;;;;;7.03;5.40;;;9.10;99.90;;;;;;5045095;28;20465;-70
2022/02/03 22:03:11;;;;;;;6.50;5.47;;;9.10;99.90;;;;;;5043521;28;20438;-71
2022/02/03 22:05:38;;;;;;;6.60;5.67;;;9.10;99.90;;;;;;5039858;28;20429;-71
2022/02/03 22:08:04;;;;;;;6.50;5.20;;;9.10;99.90;;;;;;5042071;28;20465;-71
2022/02/03 22:10:30;;;;;;;7.47;5.87;;;9.10;99.90;;;;;;5041838;28;20552;-72
2022/02/03 22:12:56;;;;;;;5.90;5.30;;;9.10;99.90;;;;;;5041840;28;20508;-71
2022/02/03 22:15:22;;;;;;;7.80;5.70;;;9.10;99.90;;;;;;5042553;28;20584;-71
2022/02/03 22:17:49;;;;;;;5.90;5.17;;;9.00;99.90;;;;;;5043190;28;20216;-72
2022/02/03 22:20:39;;;;;;;5.57;4.80;;;9.00;99.90;;;;;;5036617;28;20539;-71
2022/02/03 22:26:04;;;;;;;7.70;5.63;;;8.90;99.90;;;;;;5040668;28;20446;-70
2022/02/03 22:45:18;;;;;;;6.47;5.70;;;8.90;99.90;;;;;;5042840;28;20446;-69
2022/02/03 22:49:45;;;;;;;4.97;4.23;;;8.80;99.90;;;;;;5039027;28;20446;-70
2022/02/03 22:52:12;;;;;;;5.40;4.37;;;8.90;99.90;;;;;;5044818;28;20570;-69
2022/02/03 22:54:39;;;;;;;9.80;4.53;;;8.90;99.90;;;;;;5027130;28;20437;-69
2022/02/03 22:57:05;;;;;;;6.40;5.20;;;8.80;99.90;;;;;;5041418;28;20537;-69
2022/02/03 23:02:23;;;;;;;6.57;5.57;;;8.80;99.90;;;;;;5021645;28;20856;-70
2022/02/03 23:04:48;;;;;;;8.00;5.27;;;8.70;99.90;;;;;;5042668;28;20446;-70
2022/02/03 23:07:17;;;;;;;;;;;;;;;;;;;;;
2022/02/03 23:12:21;;;;;;;5.10;4.33;;;8.60;99.90;;;;;;5041072;28;20245;-70
2022/02/03 23:20:07;;;;;;;6.50;4.13;;;8.80;99.90;;;;;;5040320;28;20192;-69
2022/02/03 23:22:33;;;;;;;5.80;4.20;;;8.70;99.90;;;;;;5043446;28;20443;-69
2022/02/03 23:25:00;;;;;;;6.60;4.73;;;8.80;99.90;;;;;;5041835;28;20432;-70
2022/02/03 23:29:52;;;;;;;5.70;4.87;;;8.80;99.90;;;;;;5036312;28;20462;-70
2022/02/03 23:32:18;;;;;;;5.87;4.60;;;8.70;99.90;;;;;;5042565;28;20181;-70
2022/02/03 23:34:49;;;;;;;9.93;5.13;;;8.60;99.90;;;;;;5040131;28;20472;-70
2022/02/03 23:37:15;;;;;;;6.47;4.50;;;8.60;99.90;;;;;;5040733;28;20534;-70
2022/02/03 23:42:55;;;;;;;5.00;4.50;;;8.60;99.90;;;;;;5039434;28;20188;-70
2022/02/03 23:45:28;;;;;;;6.60;4.70;;;8.70;99.90;;;;;;5039064;28;21269;-71
